sensor_id;sensor_type;location;lat;lon;timestamp;P1;durP1;ratioP1;P2;durP2;ratioP2
63394;SDS011;49531;-34.520;150.798;2022-12-24T00:02:24;5.45;;;3.60;;
63394;SDS011;49531;-34.520;150.798;2022-12-24T00:04:52;7.75;;;3.60;;
63394;SDS011;49531;-34.520;150.798;2022-12-24T00:07:19;6.60;;;3.50;;
63394;SDS011;49531;-34.520;150.798;2022-12-24T00:09:46;5.50;;;3.40;;
63394;SDS011;49531;-34.520;150.798;2022-12-24T00:12:13;4.68;;;3.63;;
63394;SDS011;49531;-34.520;150.798;2022-12-24T00:14:40;4.53;;;3.55;;
63394;SDS011;49531;-34.520;150.798;2022-12-24T00:17:07;6.90;;;3.55;;
63394;SDS011;49531;-34.520;150.798;2022-12-24T00:19:35;5.82;;;3.50;;
63394;SDS011;49531;-34.520;150.798;2022-12-24T00:22:02;6.75;;;3.55;;
63394;SDS011;49531;-34.520;150.798;2022-12-24T00:24:29;6.50;;;3.67;;
63394;SDS011;49531;-34.520;150.798;2022-12-24T00:26:56;6.90;;;3.53;;
63394;SDS011;49531;-34.520;150.798;2022-12-24T00:29:23;5.75;;;3.85;;
63394;SDS011;49531;-34.520;150.798;2022-12-24T00:31:50;6.78;;;3.80;;
63394;SDS011;49531;-34.520;150.798;2022-12-24T00:34:18;7.65;;;3.58;;
63394;SDS011;49531;-34.520;150.798;2022-12-24T00:36:45;4.72;;;3.40;;
63394;SDS011;49531;-34.520;150.798;2022-12-24T00:39:12;5.38;;;3.03;;
63394;SDS011;49531;-34.520;150.798;2022-12-24T00:41:39;6.60;;;3.50;;
63394;SDS011;49531;-34.520;150.798;2022-12-24T00:44:06;6.75;;;3.65;;
63394;SDS011;49531;-34.520;150.798;2022-12-24T00:46:35;5.68;;;3.60;;
63394;SDS011;49531;-34.520;150.798;2022-12-24T00:49:05;5.47;;;3.67;;
63394;SDS011;49531;-34.520;150.798;2022-12-24T00:51:34;7.28;;;3.70;;
63394;SDS011;49531;-34.520;150.798;2022-12-24T00:54:01;5.35;;;3.70;;
63394;SDS011;49531;-34.520;150.798;2022-12-24T00:56:29;7.63;;;3.55;;
63394;SDS011;49531;-34.520;150.798;2022-12-24T00:58:56;5.57;;;3.38;;
63394;SDS011;49531;-34.520;150.798;2022-12-24T01:01:23;5.72;;;3.40;;
63394;SDS011;49531;-34.520;150.798;2022-12-24T01:03:51;6.88;;;3.80;;
63394;SDS011;49531;-34.520;150.798;2022-12-24T01:06:39;3.67;;;3.08;;
63394;SDS011;49531;-34.520;150.798;2022-12-24T01:09:06;5.18;;;2.75;;
63394;SDS011;49531;-34.520;150.798;2022-12-24T01:11:33;5.07;;;2.97;;
63394;SDS011;49531;-34.520;150.798;2022-12-24T01:14:00;4.07;;;2.83;;
63394;SDS011;49531;-34.520;150.798;2022-12-24T01:16:28;7.28;;;3.10;;
63394;SDS011;49531;-34.520;150.798;2022-12-24T01:18:55;4.05;;;3.00;;
63394;SDS011;49531;-34.520;150.798;2022-12-24T01:21:22;7.10;;;3.00;;
63394;SDS011;49531;-34.520;150.798;2022-12-24T01:23:51;4.78;;;2.65;;
63394;SDS011;49531;-34.520;150.798;2022-12-24T01:26:18;2.78;;;2.38;;
63394;SDS011;49531;-34.520;150.798;2022-12-24T01:28:45;3.35;;;2.45;;
63394;SDS011;49531;-34.520;150.798;2022-12-24T01:31:13;3.83;;;2.60;;
63394;SDS011;49531;-34.520;150.798;2022-12-24T01:33:43;4.03;;;2.60;;
63394;SDS011;49531;-34.520;150.798;2022-12-24T01:36:11;3.47;;;2.60;;
63394;SDS011;49531;-34.520;150.798;2022-12-24T01:38:39;5.25;;;3.00;;
63394;SDS011;49531;-34.520;150.798;2022-12-24T01:41:11;4.22;;;3.17;;
63394;SDS011;49531;-34.520;150.798;2022-12-24T01:43:54;8.30;;;3.83;;
63394;SDS011;49531;-34.520;150.798;2022-12-24T01:46:25;6.18;;;3.72;;
63394;SDS011;49531;-34.520;150.798;2022-12-24T01:49:00;5.45;;;3.75;;
63394;SDS011;49531;-34.520;150.798;2022-12-24T01:51:31;3.90;;;3.50;;
63394;SDS011;49531;-34.520;150.798;2022-12-24T01:54:06;6.70;;;3.60;;
63394;SDS011;49531;-34.520;150.798;2022-12-24T01:56:39;5.43;;;3.60;;
63394;SDS011;49531;-34.520;150.798;2022-12-24T01:59:12;11.20;;;3.80;;
63394;SDS011;49531;-34.520;150.798;2022-12-24T02:01:41;6.95;;;4.22;;
63394;SDS011;49531;-34.520;150.798;2022-12-24T02:04:16;7.65;;;4.40;;
63394;SDS011;49531;-34.520;150.798;2022-12-24T02:06:57;8.57;;;4.65;;
63394;SDS011;49531;-34.520;150.798;2022-12-24T02:09:25;10.75;;;4.85;;
63394;SDS011;49531;-34.520;150.798;2022-12-24T02:11:53;9.13;;;4.43;;
63394;SDS011;49531;-34.520;150.798;2022-12-24T02:14:21;4.90;;;4.40;;
63394;SDS011;49531;-34.520;150.798;2022-12-24T02:16:58;11.40;;;5.13;;
63394;SDS011;49531;-34.520;150.798;2022-12-24T02:19:59;10.63;;;5.38;;
63394;SDS011;49531;-34.520;150.798;2022-12-24T02:28:45;11.13;;;5.30;;
63394;SDS011;49531;-34.520;150.798;2022-12-24T02:31:40;10.63;;;5.10;;
63394;SDS011;49531;-34.520;150.798;2022-12-24T02:34:17;8.95;;;4.55;;
63394;SDS011;49531;-34.520;150.798;2022-12-24T02:37:01;9.70;;;4.35;;
63394;SDS011;49531;-34.520;150.798;2022-12-24T02:39:40;8.95;;;4.30;;
63394;SDS011;49531;-34.520;150.798;2022-12-24T02:42:14;9.10;;;3.60;;
63394;SDS011;49531;-34.520;150.798;2022-12-24T02:44:47;5.78;;;3.28;;
63394;SDS011;49531;-34.520;150.798;2022-12-24T02:47:22;8.68;;;3.60;;
63394;SDS011;49531;-34.520;150.798;2022-12-24T02:49:51;12.02;;;3.45;;
63394;SDS011;49531;-34.520;150.798;2022-12-24T02:52:29;6.32;;;3.20;;
63394;SDS011;49531;-34.520;150.798;2022-12-24T02:55:01;9.30;;;3.80;;
63394;SDS011;49531;-34.520;150.798;2022-12-24T02:57:42;7.93;;;4.40;;
63394;SDS011;49531;-34.520;150.798;2022-12-24T03:00:26;7.95;;;4.03;;
63394;SDS011;49531;-34.520;150.798;2022-12-24T03:03:15;9.07;;;4.20;;
63394;SDS011;49531;-34.520;150.798;2022-12-24T03:06:07;9.68;;;4.10;;
63394;SDS011;49531;-34.520;150.798;2022-12-24T03:08:49;8.20;;;3.67;;
63394;SDS011;49531;-34.520;150.798;2022-12-24T03:11:25;7.80;;;3.90;;
63394;SDS011;49531;-34.520;150.798;2022-12-24T03:13:52;7.95;;;4.07;;
63394;SDS011;49531;-34.520;150.798;2022-12-24T03:16:24;11.25;;;3.88;;
63394;SDS011;49531;-34.520;150.798;2022-12-24T03:18:53;7.28;;;3.60;;
63394;SDS011;49531;-34.520;150.798;2022-12-24T03:21:28;5.47;;;3.70;;
63394;SDS011;49531;-34.520;150.798;2022-12-24T03:23:59;8.85;;;3.28;;
63394;SDS011;49531;-34.520;150.798;2022-12-24T03:26:27;8.80;;;3.67;;
63394;SDS011;49531;-34.520;150.798;2022-12-24T03:28:56;8.07;;;3.78;;
63394;SDS011;49531;-34.520;150.798;2022-12-24T03:31:23;7.85;;;3.97;;
63394;SDS011;49531;-34.520;150.798;2022-12-24T03:33:51;7.00;;;3.92;;
63394;SDS011;49531;-34.520;150.798;2022-12-24T03:36:18;9.07;;;4.63;;
63394;SDS011;49531;-34.520;150.798;2022-12-24T03:38:45;5.07;;;3.70;;
63394;SDS011;49531;-34.520;150.798;2022-12-24T03:41:12;6.43;;;4.32;;
63394;SDS011;49531;-34.520;150.798;2022-12-24T03:43:39;8.18;;;4.13;;
63394;SDS011;49531;-34.520;150.798;2022-12-24T03:46:06;5.28;;;3.45;;
63394;SDS011;49531;-34.520;150.798;2022-12-24T03:48:34;8.30;;;3.47;;
63394;SDS011;49531;-34.520;150.798;2022-12-24T03:51:02;6.03;;;3.60;;
63394;SDS011;49531;-34.520;150.798;2022-12-24T03:53:29;6.97;;;3.50;;
63394;SDS011;49531;-34.520;150.798;2022-12-24T03:55:57;9.85;;;3.30;;
63394;SDS011;49531;-34.520;150.798;2022-12-24T03:58:25;5.43;;;3.40;;
63394;SDS011;49531;-34.520;150.798;2022-12-24T04:00:52;8.80;;;3.60;;
63394;SDS011;49531;-34.520;150.798;2022-12-24T04:03:19;6.72;;;3.50;;
63394;SDS011;49531;-34.520;150.798;2022-12-24T04:05:46;8.80;;;3.38;;
63394;SDS011;49531;-34.520;150.798;2022-12-24T04:08:14;10.55;;;3.20;;
63394;SDS011;49531;-34.520;150.798;2022-12-24T04:10:41;7.45;;;3.20;;
63394;SDS011;49531;-34.520;150.798;2022-12-24T04:13:08;8.73;;;3.33;;
63394;SDS011;49531;-34.520;150.798;2022-12-24T04:15:35;7.07;;;3.42;;
63394;SDS011;49531;-34.520;150.798;2022-12-24T04:18:02;9.18;;;5.43;;
63394;SDS011;49531;-34.520;150.798;2022-12-24T04:20:29;8.23;;;5.18;;
63394;SDS011;49531;-34.520;150.798;2022-12-24T04:22:56;11.70;;;5.00;;
63394;SDS011;49531;-34.520;150.798;2022-12-24T04:25:23;7.68;;;4.80;;
63394;SDS011;49531;-34.520;150.798;2022-12-24T04:27:50;9.45;;;4.20;;
63394;SDS011;49531;-34.520;150.798;2022-12-24T04:30:18;6.50;;;3.97;;
63394;SDS011;49531;-34.520;150.798;2022-12-24T04:32:45;6.55;;;3.65;;
63394;SDS011;49531;-34.520;150.798;2022-12-24T04:35:12;8.48;;;3.35;;
63394;SDS011;49531;-34.520;150.798;2022-12-24T04:37:39;4.95;;;3.10;;
63394;SDS011;49531;-34.520;150.798;2022-12-24T04:40:06;8.60;;;3.70;;
63394;SDS011;49531;-34.520;150.798;2022-12-24T04:42:34;5.43;;;3.75;;
63394;SDS011;49531;-34.520;150.798;2022-12-24T04:45:01;6.57;;;3.60;;
63394;SDS011;49531;-34.520;150.798;2022-12-24T04:47:28;5.63;;;3.50;;
63394;SDS011;49531;-34.520;150.798;2022-12-24T04:49:55;7.38;;;3.70;;
63394;SDS011;49531;-34.520;150.798;2022-12-24T04:52:22;7.72;;;3.65;;
63394;SDS011;49531;-34.520;150.798;2022-12-24T04:54:49;9.25;;;3.60;;
63394;SDS011;49531;-34.520;150.798;2022-12-24T04:57:17;7.07;;;3.60;;
63394;SDS011;49531;-34.520;150.798;2022-12-24T04:59:44;6.63;;;3.17;;
63394;SDS011;49531;-34.520;150.798;2022-12-24T05:02:11;4.18;;;3.05;;
63394;SDS011;49531;-34.520;150.798;2022-12-24T05:04:38;6.82;;;2.90;;
63394;SDS011;49531;-34.520;150.798;2022-12-24T05:07:05;5.18;;;2.75;;
63394;SDS011;49531;-34.520;150.798;2022-12-24T05:09:32;3.90;;;2.80;;
63394;SDS011;49531;-34.520;150.798;2022-12-24T05:11:59;3.88;;;2.70;;
63394;SDS011;49531;-34.520;150.798;2022-12-24T05:14:27;4.15;;;2.33;;
63394;SDS011;49531;-34.520;150.798;2022-12-24T05:16:54;3.65;;;2.30;;
63394;SDS011;49531;-34.520;150.798;2022-12-24T05:19:21;3.88;;;2.28;;
63394;SDS011;49531;-34.520;150.798;2022-12-24T05:21:48;3.78;;;2.28;;
63394;SDS011;49531;-34.520;150.798;2022-12-24T05:24:35;3.75;;;2.40;;
63394;SDS011;49531;-34.520;150.798;2022-12-24T05:27:13;4.45;;;2.30;;
63394;SDS011;49531;-34.520;150.798;2022-12-24T05:29:40;4.68;;;2.45;;
63394;SDS011;49531;-34.520;150.798;2022-12-24T05:32:08;5.47;;;2.22;;
63394;SDS011;49531;-34.520;150.798;2022-12-24T05:34:35;3.78;;;2.33;;
63394;SDS011;49531;-34.520;150.798;2022-12-24T05:37:02;2.50;;;2.13;;
63394;SDS011;49531;-34.520;150.798;2022-12-24T05:39:29;3.20;;;2.20;;
63394;SDS011;49531;-34.520;150.798;2022-12-24T05:41:56;3.17;;;2.33;;
63394;SDS011;49531;-34.520;150.798;2022-12-24T05:44:23;7.35;;;2.50;;
63394;SDS011;49531;-34.520;150.798;2022-12-24T05:46:51;5.18;;;2.47;;
63394;SDS011;49531;-34.520;150.798;2022-12-24T05:49:18;6.53;;;2.70;;
63394;SDS011;49531;-34.520;150.798;2022-12-24T05:51:45;4.07;;;2.60;;
63394;SDS011;49531;-34.520;150.798;2022-12-24T05:54:12;6.72;;;2.88;;
63394;SDS011;49531;-34.520;150.798;2022-12-24T05:56:39;4.93;;;2.60;;
63394;SDS011;49531;-34.520;150.798;2022-12-24T05:59:06;5.00;;;2.20;;
63394;SDS011;49531;-34.520;150.798;2022-12-24T06:01:33;5.20;;;2.50;;
63394;SDS011;49531;-34.520;150.798;2022-12-24T06:04:01;4.78;;;2.50;;
63394;SDS011;49531;-34.520;150.798;2022-12-24T06:06:28;5.90;;;2.40;;
63394;SDS011;49531;-34.520;150.798;2022-12-24T06:08:55;4.55;;;2.30;;
63394;SDS011;49531;-34.520;150.798;2022-12-24T06:11:24;5.82;;;2.45;;
63394;SDS011;49531;-34.520;150.798;2022-12-24T06:13:52;4.70;;;2.05;;
63394;SDS011;49531;-34.520;150.798;2022-12-24T06:16:20;5.88;;;2.00;;
63394;SDS011;49531;-34.520;150.798;2022-12-24T06:18:49;6.63;;;2.50;;
63394;SDS011;49531;-34.520;150.798;2022-12-24T06:21:17;3.70;;;2.40;;
63394;SDS011;49531;-34.520;150.798;2022-12-24T06:23:45;4.93;;;2.33;;
63394;SDS011;49531;-34.520;150.798;2022-12-24T06:26:13;6.57;;;2.30;;
63394;SDS011;49531;-34.520;150.798;2022-12-24T06:28:42;4.88;;;2.55;;
63394;SDS011;49531;-34.520;150.798;2022-12-24T06:31:11;2.67;;;2.30;;
63394;SDS011;49531;-34.520;150.798;2022-12-24T06:33:40;6.65;;;2.50;;
63394;SDS011;49531;-34.520;150.798;2022-12-24T06:36:08;3.45;;;2.30;;
63394;SDS011;49531;-34.520;150.798;2022-12-24T06:38:40;4.18;;;2.53;;
63394;SDS011;49531;-34.520;150.798;2022-12-24T06:41:07;4.25;;;2.38;;
63394;SDS011;49531;-34.520;150.798;2022-12-24T06:43:34;6.07;;;2.42;;
63394;SDS011;49531;-34.520;150.798;2022-12-24T06:46:02;3.10;;;2.58;;
63394;SDS011;49531;-34.520;150.798;2022-12-24T06:48:29;5.88;;;2.42;;
63394;SDS011;49531;-34.520;150.798;2022-12-24T06:50:57;7.53;;;2.70;;
63394;SDS011;49531;-34.520;150.798;2022-12-24T06:53:26;5.80;;;2.58;;
63394;SDS011;49531;-34.520;150.798;2022-12-24T06:55:59;3.00;;;2.38;;
63394;SDS011;49531;-34.520;150.798;2022-12-24T06:58:29;3.85;;;2.20;;
63394;SDS011;49531;-34.520;150.798;2022-12-24T07:00:56;3.42;;;2.30;;
63394;SDS011;49531;-34.520;150.798;2022-12-24T07:03:23;2.80;;;2.30;;
63394;SDS011;49531;-34.520;150.798;2022-12-24T07:05:50;2.28;;;2.08;;
63394;SDS011;49531;-34.520;150.798;2022-12-24T07:08:18;2.47;;;2.08;;
63394;SDS011;49531;-34.520;150.798;2022-12-24T07:10:47;3.95;;;2.30;;
63394;SDS011;49531;-34.520;150.798;2022-12-24T07:13:15;3.45;;;2.40;;
63394;SDS011;49531;-34.520;150.798;2022-12-24T07:15:43;3.28;;;2.20;;
63394;SDS011;49531;-34.520;150.798;2022-12-24T07:18:10;2.92;;;2.40;;
63394;SDS011;49531;-34.520;150.798;2022-12-24T07:20:38;3.38;;;2.20;;
63394;SDS011;49531;-34.520;150.798;2022-12-24T07:23:05;2.78;;;2.30;;
63394;SDS011;49531;-34.520;150.798;2022-12-24T07:25:32;2.92;;;2.10;;
63394;SDS011;49531;-34.520;150.798;2022-12-24T07:27:59;3.75;;;2.03;;
63394;SDS011;49531;-34.520;150.798;2022-12-24T07:30:26;2.20;;;2.00;;
63394;SDS011;49531;-34.520;150.798;2022-12-24T07:32:53;3.15;;;1.95;;
63394;SDS011;49531;-34.520;150.798;2022-12-24T07:35:20;2.55;;;2.35;;
63394;SDS011;49531;-34.520;150.798;2022-12-24T07:37:47;4.88;;;2.10;;
63394;SDS011;49531;-34.520;150.798;2022-12-24T07:40:14;5.28;;;2.22;;
63394;SDS011;49531;-34.520;150.798;2022-12-24T07:42:41;4.00;;;2.30;;
63394;SDS011;49531;-34.520;150.798;2022-12-24T07:45:08;3.83;;;2.28;;
63394;SDS011;49531;-34.520;150.798;2022-12-24T07:47:36;3.10;;;2.20;;
63394;SDS011;49531;-34.520;150.798;2022-12-24T07:50:03;5.05;;;2.28;;
63394;SDS011;49531;-34.520;150.798;2022-12-24T07:52:31;3.92;;;2.30;;
63394;SDS011;49531;-34.520;150.798;2022-12-24T07:54:58;2.63;;;2.03;;
63394;SDS011;49531;-34.520;150.798;2022-12-24T07:57:25;3.25;;;2.10;;
63394;SDS011;49531;-34.520;150.798;2022-12-24T07:59:52;2.40;;;2.20;;
63394;SDS011;49531;-34.520;150.798;2022-12-24T08:02:19;4.88;;;2.53;;
63394;SDS011;49531;-34.520;150.798;2022-12-24T08:04:46;3.45;;;2.28;;
63394;SDS011;49531;-34.520;150.798;2022-12-24T08:07:14;4.70;;;2.65;;
63394;SDS011;49531;-34.520;150.798;2022-12-24T08:09:41;3.35;;;2.30;;
63394;SDS011;49531;-34.520;150.798;2022-12-24T08:12:10;3.97;;;2.40;;
63394;SDS011;49531;-34.520;150.798;2022-12-24T08:14:37;3.28;;;2.40;;
63394;SDS011;49531;-34.520;150.798;2022-12-24T08:17:04;3.67;;;2.80;;
63394;SDS011;49531;-34.520;150.798;2022-12-24T08:19:31;5.88;;;2.90;;
63394;SDS011;49531;-34.520;150.798;2022-12-24T08:21:58;6.60;;;2.97;;
63394;SDS011;49531;-34.520;150.798;2022-12-24T08:24:25;3.42;;;2.60;;
63394;SDS011;49531;-34.520;150.798;2022-12-24T08:26:53;5.85;;;2.50;;
63394;SDS011;49531;-34.520;150.798;2022-12-24T08:29:20;3.90;;;2.63;;
63394;SDS011;49531;-34.520;150.798;2022-12-24T08:31:47;3.85;;;2.83;;
63394;SDS011;49531;-34.520;150.798;2022-12-24T08:34:14;3.88;;;2.72;;
63394;SDS011;49531;-34.520;150.798;2022-12-24T08:36:41;4.53;;;2.80;;
63394;SDS011;49531;-34.520;150.798;2022-12-24T08:39:08;4.10;;;2.90;;
63394;SDS011;49531;-34.520;150.798;2022-12-24T08:41:36;5.30;;;2.70;;
63394;SDS011;49531;-34.520;150.798;2022-12-24T08:44:03;4.75;;;2.72;;
63394;SDS011;49531;-34.520;150.798;2022-12-24T08:46:30;3.80;;;2.90;;
63394;SDS011;49531;-34.520;150.798;2022-12-24T08:48:57;4.68;;;2.85;;
63394;SDS011;49531;-34.520;150.798;2022-12-24T08:51:24;4.47;;;2.90;;
63394;SDS011;49531;-34.520;150.798;2022-12-24T08:53:51;4.78;;;2.92;;
63394;SDS011;49531;-34.520;150.798;2022-12-24T08:56:18;3.47;;;2.80;;
63394;SDS011;49531;-34.520;150.798;2022-12-24T08:58:45;3.55;;;2.50;;
63394;SDS011;49531;-34.520;150.798;2022-12-24T09:01:14;7.53;;;3.05;;
63394;SDS011;49531;-34.520;150.798;2022-12-24T09:03:43;4.88;;;2.92;;
63394;SDS011;49531;-34.520;150.798;2022-12-24T09:06:10;3.70;;;2.70;;
63394;SDS011;49531;-34.520;150.798;2022-12-24T09:08:38;4.72;;;3.00;;
63394;SDS011;49531;-34.520;150.798;2022-12-24T09:11:06;5.63;;;2.92;;
63394;SDS011;49531;-34.520;150.798;2022-12-24T09:13:36;3.85;;;2.90;;
63394;SDS011;49531;-34.520;150.798;2022-12-24T09:16:03;4.28;;;2.72;;
63394;SDS011;49531;-34.520;150.798;2022-12-24T09:18:31;5.43;;;3.10;;
63394;SDS011;49531;-34.520;150.798;2022-12-24T09:20:59;4.70;;;3.00;;
63394;SDS011;49531;-34.520;150.798;2022-12-24T09:23:27;5.10;;;3.05;;
63394;SDS011;49531;-34.520;150.798;2022-12-24T09:25:54;3.30;;;2.83;;
63394;SDS011;49531;-34.520;150.798;2022-12-24T09:28:22;3.85;;;2.88;;
63394;SDS011;49531;-34.520;150.798;2022-12-24T09:30:54;4.60;;;2.95;;
63394;SDS011;49531;-34.520;150.798;2022-12-24T09:33:22;4.82;;;3.03;;
63394;SDS011;49531;-34.520;150.798;2022-12-24T09:35:50;4.47;;;3.10;;
63394;SDS011;49531;-34.520;150.798;2022-12-24T09:38:18;5.32;;;3.00;;
63394;SDS011;49531;-34.520;150.798;2022-12-24T09:40:47;5.85;;;3.40;;
63394;SDS011;49531;-34.520;150.798;2022-12-24T09:43:17;5.57;;;3.17;;
63394;SDS011;49531;-34.520;150.798;2022-12-24T09:45:49;5.55;;;3.13;;
63394;SDS011;49531;-34.520;150.798;2022-12-24T09:48:33;4.85;;;3.03;;
63394;SDS011;49531;-34.520;150.798;2022-12-24T09:51:08;4.07;;;3.10;;
63394;SDS011;49531;-34.520;150.798;2022-12-24T09:53:39;6.07;;;3.30;;
63394;SDS011;49531;-34.520;150.798;2022-12-24T09:56:15;7.28;;;2.92;;
63394;SDS011;49531;-34.520;150.798;2022-12-24T09:58:48;4.68;;;3.00;;
63394;SDS011;49531;-34.520;150.798;2022-12-24T10:01:22;4.43;;;3.45;;
63394;SDS011;49531;-34.520;150.798;2022-12-24T10:03:49;5.03;;;3.25;;
63394;SDS011;49531;-34.520;150.798;2022-12-24T10:06:18;4.65;;;3.10;;
63394;SDS011;49531;-34.520;150.798;2022-12-24T10:08:56;5.82;;;3.00;;
63394;SDS011;49531;-34.520;150.798;2022-12-24T10:11:42;5.15;;;3.08;;
63394;SDS011;49531;-34.520;150.798;2022-12-24T10:17:19;6.45;;;3.25;;
63394;SDS011;49531;-34.520;150.798;2022-12-24T10:19:59;4.78;;;2.97;;
63394;SDS011;49531;-34.520;150.798;2022-12-24T10:22:52;6.35;;;3.20;;
63394;SDS011;49531;-34.520;150.798;2022-12-24T10:25:29;7.05;;;3.35;;
63394;SDS011;49531;-34.520;150.798;2022-12-24T10:28:11;6.68;;;3.40;;
63394;SDS011;49531;-34.520;150.798;2022-12-24T10:30:42;5.75;;;3.17;;
63394;SDS011;49531;-34.520;150.798;2022-12-24T10:33:17;7.17;;;3.43;;
63394;SDS011;49531;-34.520;150.798;2022-12-24T10:35:50;5.00;;;2.90;;
63394;SDS011;49531;-34.520;150.798;2022-12-24T10:40:49;7.07;;;2.90;;
63394;SDS011;49531;-34.520;150.798;2022-12-24T10:43:19;6.30;;;2.97;;
63394;SDS011;49531;-34.520;150.798;2022-12-24T10:45:55;5.18;;;3.10;;
63394;SDS011;49531;-34.520;150.798;2022-12-24T10:48:27;4.47;;;3.00;;
63394;SDS011;49531;-34.520;150.798;2022-12-24T10:51:03;5.57;;;2.92;;
63394;SDS011;49531;-34.520;150.798;2022-12-24T10:53:41;4.65;;;2.83;;
63394;SDS011;49531;-34.520;150.798;2022-12-24T10:56:14;4.50;;;3.13;;
63394;SDS011;49531;-34.520;150.798;2022-12-24T10:58:44;5.10;;;3.10;;
63394;SDS011;49531;-34.520;150.798;2022-12-24T11:01:17;4.78;;;2.78;;
63394;SDS011;49531;-34.520;150.798;2022-12-24T11:03:45;8.60;;;3.67;;
63394;SDS011;49531;-34.520;150.798;2022-12-24T11:06:26;6.18;;;3.65;;
63394;SDS011;49531;-34.520;150.798;2022-12-24T11:08:53;8.15;;;3.60;;
63394;SDS011;49531;-34.520;150.798;2022-12-24T11:11:43;6.45;;;3.30;;
63394;SDS011;49531;-34.520;150.798;2022-12-24T11:14:13;7.45;;;3.58;;
63394;SDS011;49531;-34.520;150.798;2022-12-24T11:16:48;5.90;;;3.47;;
63394;SDS011;49531;-34.520;150.798;2022-12-24T11:19:29;7.10;;;3.65;;
63394;SDS011;49531;-34.520;150.798;2022-12-24T11:22:00;6.18;;;3.80;;
63394;SDS011;49531;-34.520;150.798;2022-12-24T11:24:31;7.45;;;4.05;;
63394;SDS011;49531;-34.520;150.798;2022-12-24T11:29:51;8.02;;;4.13;;
63394;SDS011;49531;-34.520;150.798;2022-12-24T11:32:20;8.68;;;4.18;;
63394;SDS011;49531;-34.520;150.798;2022-12-24T11:34:48;7.40;;;4.15;;
63394;SDS011;49531;-34.520;150.798;2022-12-24T11:37:20;8.20;;;4.18;;
63394;SDS011;49531;-34.520;150.798;2022-12-24T11:39:50;6.07;;;3.67;;
63394;SDS011;49531;-34.520;150.798;2022-12-24T11:42:28;7.63;;;3.72;;
63394;SDS011;49531;-34.520;150.798;2022-12-24T11:45:00;6.25;;;3.63;;
63394;SDS011;49531;-34.520;150.798;2022-12-24T11:47:32;7.65;;;4.18;;
63394;SDS011;49531;-34.520;150.798;2022-12-24T11:52:51;8.32;;;4.40;;
63394;SDS011;49531;-34.520;150.798;2022-12-24T11:55:46;7.43;;;4.25;;
63394;SDS011;49531;-34.520;150.798;2022-12-24T11:58:20;8.38;;;4.07;;
63394;SDS011;49531;-34.520;150.798;2022-12-24T12:01:11;9.00;;;4.10;;
63394;SDS011;49531;-34.520;150.798;2022-12-24T12:03:52;6.47;;;3.60;;
63394;SDS011;49531;-34.520;150.798;2022-12-24T12:06:25;7.70;;;4.17;;
63394;SDS011;49531;-34.520;150.798;2022-12-24T12:09:02;8.82;;;4.40;;
63394;SDS011;49531;-34.520;150.798;2022-12-24T12:11:37;8.38;;;4.03;;
63394;SDS011;49531;-34.520;150.798;2022-12-24T12:14:08;8.27;;;4.10;;
63394;SDS011;49531;-34.520;150.798;2022-12-24T12:16:46;8.75;;;4.18;;
63394;SDS011;49531;-34.520;150.798;2022-12-24T12:19:31;10.00;;;4.40;;
63394;SDS011;49531;-34.520;150.798;2022-12-24T12:22:06;11.13;;;4.68;;
63394;SDS011;49531;-34.520;150.798;2022-12-24T12:24:43;7.75;;;4.45;;
63394;SDS011;49531;-34.520;150.798;2022-12-24T12:27:20;9.15;;;4.40;;
63394;SDS011;49531;-34.520;150.798;2022-12-24T12:30:04;8.18;;;4.32;;
63394;SDS011;49531;-34.520;150.798;2022-12-24T12:32:42;8.63;;;4.25;;
63394;SDS011;49531;-34.520;150.798;2022-12-24T12:35:23;10.10;;;4.22;;
63394;SDS011;49531;-34.520;150.798;2022-12-24T12:37:58;10.23;;;4.32;;
63394;SDS011;49531;-34.520;150.798;2022-12-24T12:43:32;9.18;;;4.43;;
63394;SDS011;49531;-34.520;150.798;2022-12-24T12:46:28;8.10;;;4.28;;
63394;SDS011;49531;-34.520;150.798;2022-12-24T12:52:14;9.45;;;4.43;;
63394;SDS011;49531;-34.520;150.798;2022-12-24T12:55:16;9.05;;;4.63;;
63394;SDS011;49531;-34.520;150.798;2022-12-24T12:57:53;8.05;;;4.13;;
63394;SDS011;49531;-34.520;150.798;2022-12-24T13:00:25;7.93;;;4.28;;
63394;SDS011;49531;-34.520;150.798;2022-12-24T13:03:09;8.07;;;4.15;;
63394;SDS011;49531;-34.520;150.798;2022-12-24T13:06:20;8.07;;;4.00;;
63394;SDS011;49531;-34.520;150.798;2022-12-24T13:09:06;8.50;;;4.28;;
63394;SDS011;49531;-34.520;150.798;2022-12-24T13:12:02;11.05;;;4.70;;
63394;SDS011;49531;-34.520;150.798;2022-12-24T13:14:47;7.88;;;4.00;;
63394;SDS011;49531;-34.520;150.798;2022-12-24T13:20:20;10.25;;;4.28;;
63394;SDS011;49531;-34.520;150.798;2022-12-24T13:22:57;9.73;;;4.30;;
63394;SDS011;49531;-34.520;150.798;2022-12-24T13:25:44;8.13;;;4.28;;
63394;SDS011;49531;-34.520;150.798;2022-12-24T13:28:35;8.75;;;4.10;;
63394;SDS011;49531;-34.520;150.798;2022-12-24T13:33:51;9.27;;;4.30;;
63394;SDS011;49531;-34.520;150.798;2022-12-24T13:36:20;8.45;;;4.03;;
63394;SDS011;49531;-34.520;150.798;2022-12-24T13:38:50;10.13;;;4.18;;
63394;SDS011;49531;-34.520;150.798;2022-12-24T13:41:37;7.65;;;3.67;;
63394;SDS011;49531;-34.520;150.798;2022-12-24T13:44:15;10.00;;;4.20;;
63394;SDS011;49531;-34.520;150.798;2022-12-24T13:46:46;7.32;;;3.90;;
63394;SDS011;49531;-34.520;150.798;2022-12-24T13:49:34;7.10;;;3.80;;
63394;SDS011;49531;-34.520;150.798;2022-12-24T13:52:15;8.98;;;4.10;;
63394;SDS011;49531;-34.520;150.798;2022-12-24T13:54:59;9.02;;;4.38;;
63394;SDS011;49531;-34.520;150.798;2022-12-24T13:57:39;8.00;;;4.00;;
63394;SDS011;49531;-34.520;150.798;2022-12-24T14:03:15;7.57;;;4.00;;
63394;SDS011;49531;-34.520;150.798;2022-12-24T14:05:50;6.13;;;3.75;;
63394;SDS011;49531;-34.520;150.798;2022-12-24T14:08:26;8.93;;;4.00;;
63394;SDS011;49531;-34.520;150.798;2022-12-24T14:11:04;7.07;;;3.85;;
63394;SDS011;49531;-34.520;150.798;2022-12-24T14:16:41;6.65;;;3.88;;
63394;SDS011;49531;-34.520;150.798;2022-12-24T14:19:13;7.18;;;3.85;;
63394;SDS011;49531;-34.520;150.798;2022-12-24T14:24:42;6.60;;;3.90;;
63394;SDS011;49531;-34.520;150.798;2022-12-24T14:29:50;7.38;;;4.10;;
63394;SDS011;49531;-34.520;150.798;2022-12-24T14:32:32;10.05;;;3.88;;
63394;SDS011;49531;-34.520;150.798;2022-12-24T14:35:04;9.55;;;4.15;;
63394;SDS011;49531;-34.520;150.798;2022-12-24T14:37:46;8.02;;;3.90;;
63394;SDS011;49531;-34.520;150.798;2022-12-24T14:40:19;7.17;;;3.43;;
63394;SDS011;49531;-34.520;150.798;2022-12-24T14:43:02;7.68;;;3.97;;
63394;SDS011;49531;-34.520;150.798;2022-12-24T14:45:57;7.15;;;3.90;;
63394;SDS011;49531;-34.520;150.798;2022-12-24T14:48:44;8.23;;;3.75;;
63394;SDS011;49531;-34.520;150.798;2022-12-24T14:51:26;7.72;;;3.83;;
63394;SDS011;49531;-34.520;150.798;2022-12-24T14:54:27;6.38;;;3.58;;
63394;SDS011;49531;-34.520;150.798;2022-12-24T14:57:13;8.63;;;4.05;;
63394;SDS011;49531;-34.520;150.798;2022-12-24T14:59:50;6.15;;;3.42;;
63394;SDS011;49531;-34.520;150.798;2022-12-24T15:05:09;5.10;;;3.55;;
63394;SDS011;49531;-34.520;150.798;2022-12-24T15:07:42;6.75;;;3.88;;
63394;SDS011;49531;-34.520;150.798;2022-12-24T15:10:23;7.15;;;3.80;;
63394;SDS011;49531;-34.520;150.798;2022-12-24T15:12:54;6.47;;;3.78;;
63394;SDS011;49531;-34.520;150.798;2022-12-24T15:15:23;7.03;;;3.70;;
63394;SDS011;49531;-34.520;150.798;2022-12-24T15:17:50;8.88;;;3.83;;
63394;SDS011;49531;-34.520;150.798;2022-12-24T15:20:20;5.68;;;3.60;;